createdAt,value
2023-02-12T00:01:33.330Z,8.00
2023-02-12T00:03:59.980Z,8.40
2023-02-12T00:06:26.626Z,9.97
2023-02-12T00:08:54.485Z,12.33
2023-02-12T00:11:23.240Z,10.40
2023-02-12T00:13:50.003Z,10.40
2023-02-12T00:16:18.297Z,10.63
2023-02-12T00:18:45.219Z,9.57
2023-02-12T00:21:12.606Z,9.80
2023-02-12T00:23:41.009Z,10.07
2023-02-12T00:26:08.439Z,10.20
2023-02-12T00:28:35.447Z,10.23
2023-02-12T00:31:09.384Z,12.07
2023-02-12T00:33:36.072Z,10.03
2023-02-12T00:36:02.761Z,10.13
2023-02-12T00:38:29.348Z,8.50
2023-02-12T00:40:55.961Z,11.73
2023-02-12T00:43:22.551Z,11.10
2023-02-12T00:45:49.145Z,11.33
2023-02-12T00:48:15.948Z,13.03
2023-02-12T00:50:45.221Z,13.07
2023-02-12T00:53:11.980Z,11.93
2023-02-12T00:55:38.600Z,12.13
2023-02-12T00:58:05.194Z,11.90
2023-02-12T01:00:31.800Z,11.93
2023-02-12T01:02:58.411Z,11.33
2023-02-12T01:05:25.061Z,12.33
2023-02-12T01:07:52.385Z,11.80
2023-02-12T01:10:20.641Z,11.47
2023-02-12T01:12:47.650Z,11.10
2023-02-12T01:15:14.498Z,11.73
2023-02-12T01:17:41.132Z,10.70
2023-02-12T01:20:08.711Z,10.63
2023-02-12T01:22:35.730Z,11.73
2023-02-12T01:25:02.995Z,11.70
2023-02-12T01:27:29.617Z,11.27
2023-02-12T01:29:56.251Z,12.27
2023-02-12T01:32:22.934Z,11.20
2023-02-12T01:34:49.611Z,12.17
2023-02-12T01:37:16.392Z,11.17
2023-02-12T01:39:43.078Z,11.00
2023-02-12T01:42:16.129Z,12.30
2023-02-12T01:44:44.819Z,13.57
2023-02-12T01:47:16.473Z,11.33
2023-02-12T01:49:44.629Z,12.37
2023-02-12T01:52:15.603Z,12.63
2023-02-12T01:54:42.377Z,12.90
2023-02-12T01:57:09.462Z,14.77
2023-02-12T01:59:36.225Z,14.03
2023-02-12T02:02:03.582Z,13.07
2023-02-12T02:04:32.712Z,12.30
2023-02-12T02:07:03.449Z,11.87
2023-02-12T02:09:31.250Z,12.90
2023-02-12T02:12:16.260Z,10.87
2023-02-12T02:14:42.855Z,12.57
2023-02-12T02:17:12.453Z,11.10
2023-02-12T02:19:51.407Z,10.27
2023-02-12T02:22:43.811Z,11.07
2023-02-12T02:25:22.346Z,10.30
2023-02-12T02:28:16.847Z,10.50
2023-02-12T02:30:52.114Z,9.33
2023-02-12T02:33:27.206Z,12.30
2023-02-12T02:35:56.336Z,9.10
2023-02-12T02:38:39.106Z,10.17
2023-02-12T02:41:14.630Z,10.33
2023-02-12T02:43:47.854Z,10.20
2023-02-12T02:46:18.049Z,9.70
2023-02-12T02:48:48.119Z,10.27
2023-02-12T02:51:16.820Z,9.50
2023-02-12T02:53:45.766Z,8.83
2023-02-12T02:56:15.793Z,10.17
2023-02-12T02:58:48.233Z,9.83
2023-02-12T03:01:31.678Z,9.73
2023-02-12T03:04:08.065Z,11.23
2023-02-12T03:06:46.274Z,9.80
2023-02-12T03:09:17.343Z,10.50
2023-02-12T03:11:43.939Z,11.53
2023-02-12T03:14:15.556Z,10.30
2023-02-12T03:17:00.552Z,9.67
2023-02-12T03:19:29.707Z,9.87
2023-02-12T03:22:01.079Z,10.40
2023-02-12T03:24:48.374Z,10.67
2023-02-12T03:27:17.170Z,9.93
2023-02-12T03:29:43.806Z,11.67
2023-02-12T03:32:16.209Z,12.33
2023-02-12T03:35:16.912Z,13.40
2023-02-12T03:38:13.191Z,12.07
2023-02-12T03:41:13.722Z,10.93
2023-02-12T03:43:56.454Z,10.33
2023-02-12T03:46:27.492Z,10.13
2023-02-12T03:49:01.388Z,11.87
2023-02-12T03:51:37.038Z,10.90
2023-02-12T03:54:04.927Z,12.50
2023-02-12T03:56:38.733Z,12.13
2023-02-12T03:59:05.591Z,10.90
2023-02-12T04:01:33.027Z,11.17
2023-02-12T04:04:00.096Z,11.57
2023-02-12T04:06:27.698Z,11.43
2023-02-12T04:08:55.051Z,10.83
2023-02-12T04:11:53.915Z,10.23
2023-02-12T04:14:41.158Z,9.83
2023-02-12T04:17:30.537Z,11.20
2023-02-12T04:20:15.864Z,9.73
2023-02-12T04:23:02.215Z,10.70
2023-02-12T04:25:48.102Z,12.13
2023-02-12T04:28:14.721Z,10.03
2023-02-12T04:31:07.617Z,12.60
2023-02-12T04:33:47.616Z,10.97
2023-02-12T04:36:25.516Z,12.20
2023-02-12T04:38:54.127Z,9.77
2023-02-12T04:41:20.725Z,12.40
2023-02-12T04:43:47.320Z,11.87
2023-02-12T04:46:14.030Z,10.57
2023-02-12T04:48:59.083Z,11.03
2023-02-12T04:51:25.747Z,9.60
2023-02-12T04:53:52.331Z,9.27
2023-02-12T04:56:18.957Z,10.73
2023-02-12T04:58:45.548Z,11.20
2023-02-12T05:01:12.323Z,10.93
2023-02-12T05:03:38.952Z,10.03
2023-02-12T05:06:06.714Z,10.63
2023-02-12T05:08:33.320Z,11.47
2023-02-12T05:11:06.626Z,11.33
2023-02-12T05:13:33.366Z,11.80
2023-02-12T05:16:00.117Z,11.93
2023-02-12T05:18:26.736Z,10.13
2023-02-12T05:20:59.979Z,9.57
2023-02-12T05:23:30.509Z,9.43
2023-02-12T05:26:00.812Z,10.60
2023-02-12T05:28:27.918Z,9.97
2023-02-12T05:30:54.736Z,9.40
2023-02-12T05:33:21.423Z,9.53
2023-02-12T05:35:48.066Z,9.50
2023-02-12T05:38:14.667Z,9.90
2023-02-12T05:40:43.020Z,9.57
2023-02-12T05:43:09.627Z,8.87
2023-02-12T05:45:37.921Z,8.30
2023-02-12T05:48:04.610Z,8.83
2023-02-12T05:50:31.205Z,9.77
2023-02-12T05:52:59.317Z,9.53
2023-02-12T05:55:25.934Z,9.83
2023-02-12T05:57:52.554Z,9.40
2023-02-12T06:00:19.500Z,8.70
2023-02-12T06:02:46.123Z,8.97
2023-02-12T06:05:12.745Z,10.30
2023-02-12T06:07:39.340Z,9.77
2023-02-12T06:10:06.671Z,9.90
2023-02-12T06:12:33.274Z,10.57
2023-02-12T06:14:59.860Z,10.30
2023-02-12T06:17:26.502Z,10.17
2023-02-12T06:19:53.096Z,9.90
2023-02-12T06:22:19.701Z,10.23
2023-02-12T06:24:46.316Z,10.73
2023-02-12T06:27:12.918Z,11.57
2023-02-12T06:29:39.512Z,8.60
2023-02-12T06:32:08.368Z,10.63
2023-02-12T06:34:35.033Z,10.73
2023-02-12T06:37:01.630Z,10.73
2023-02-12T06:39:28.261Z,10.67
2023-02-12T06:41:54.863Z,10.90
2023-02-12T06:44:21.466Z,52.23
2023-02-12T06:46:48.160Z,53.00
2023-02-12T06:49:14.979Z,32.67
2023-02-12T06:51:41.763Z,25.73
2023-02-12T06:54:15.294Z,21.40
2023-02-12T06:56:41.905Z,18.03
2023-02-12T06:59:12.570Z,15.00
2023-02-12T07:01:39.179Z,14.43
2023-02-12T07:04:05.833Z,12.47
2023-02-12T07:06:34.839Z,12.23
2023-02-12T07:09:01.677Z,10.73
2023-02-12T07:11:29.682Z,9.90
2023-02-12T07:13:56.278Z,11.10
2023-02-12T07:16:23.038Z,10.43
2023-02-12T07:18:49.653Z,10.87
2023-02-12T07:21:16.375Z,11.03
2023-02-12T07:23:45.848Z,10.37
2023-02-12T07:26:12.872Z,10.87
2023-02-12T07:28:39.634Z,11.43
2023-02-12T07:31:08.641Z,9.40
2023-02-12T07:33:35.764Z,13.57
2023-02-12T07:36:03.208Z,12.20
2023-02-12T07:38:29.934Z,11.73
2023-02-12T07:40:59.309Z,13.17
2023-02-12T07:43:25.940Z,11.10
2023-02-12T07:45:52.637Z,12.80
2023-02-12T07:48:19.268Z,13.07
2023-02-12T07:50:45.856Z,12.73
2023-02-12T07:53:12.479Z,12.30
2023-02-12T07:55:39.134Z,12.27
2023-02-12T07:58:05.750Z,13.67
2023-02-12T08:00:32.328Z,11.37
2023-02-12T08:02:58.950Z,11.73
2023-02-12T08:05:25.991Z,10.83
2023-02-12T08:07:53.216Z,11.33
2023-02-12T08:10:22.247Z,15.30
2023-02-12T08:12:48.864Z,15.10
2023-02-12T08:15:15.545Z,16.60
2023-02-12T08:17:43.527Z,16.73
2023-02-12T08:20:10.423Z,16.33
2023-02-12T08:22:37.031Z,16.50
2023-02-12T08:25:03.750Z,13.63
2023-02-12T08:27:30.380Z,14.13
2023-02-12T08:29:56.978Z,12.90
2023-02-12T08:32:23.590Z,14.63
2023-02-12T08:34:50.179Z,11.60
2023-02-12T08:37:16.832Z,13.87
2023-02-12T08:39:43.511Z,13.80
2023-02-12T08:42:10.118Z,12.37
2023-02-12T08:44:37.108Z,13.67
2023-02-12T08:47:03.912Z,12.53
2023-02-12T08:49:30.765Z,12.23
2023-02-12T08:51:58.151Z,13.07
2023-02-12T08:54:26.082Z,12.00
2023-02-12T08:56:56.911Z,13.73
2023-02-12T08:59:23.575Z,11.43
2023-02-12T09:01:53.348Z,10.07
2023-02-12T09:04:22.107Z,10.70
2023-02-12T09:06:48.937Z,9.27
2023-02-12T09:09:15.589Z,9.77
2023-02-12T09:11:42.243Z,9.97
2023-02-12T09:14:11.921Z,10.27
2023-02-12T09:16:40.185Z,12.30
2023-02-12T09:19:07.608Z,11.50
2023-02-12T09:21:34.217Z,9.50
2023-02-12T09:24:02.212Z,10.70
2023-02-12T09:26:28.922Z,12.97
2023-02-12T09:28:55.849Z,12.43
2023-02-12T09:31:29.486Z,13.47
2023-02-12T09:33:59.153Z,11.87
2023-02-12T09:36:25.821Z,14.03
2023-02-12T09:38:54.107Z,13.93
2023-02-12T09:41:27.477Z,13.03
2023-02-12T09:43:54.048Z,13.57
2023-02-12T09:46:32.228Z,13.10
2023-02-12T09:49:17.639Z,13.33
2023-02-12T09:51:45.619Z,12.70
2023-02-12T09:54:20.110Z,13.83
2023-02-12T09:56:49.541Z,11.90
2023-02-12T09:59:35.705Z,12.37
2023-02-12T10:02:02.327Z,11.67
2023-02-12T10:04:29.038Z,12.57
2023-02-12T10:07:40.486Z,13.27
2023-02-12T10:10:12.787Z,13.37
2023-02-12T10:13:02.540Z,12.87
2023-02-12T10:15:49.242Z,12.80
2023-02-12T10:18:43.380Z,12.87
2023-02-12T10:21:13.738Z,10.97
2023-02-12T10:23:58.866Z,12.17
2023-02-12T10:26:40.823Z,10.73
2023-02-12T10:29:17.386Z,11.77
2023-02-12T10:32:12.682Z,12.40
2023-02-12T10:34:39.288Z,9.90
2023-02-12T10:37:24.418Z,10.43
2023-02-12T10:39:54.593Z,10.60
2023-02-12T10:42:40.086Z,10.40
2023-02-12T10:45:10.423Z,10.97
2023-02-12T10:47:37.046Z,10.57
2023-02-12T10:50:20.283Z,9.73
2023-02-12T10:53:05.108Z,10.13
2023-02-12T10:55:35.691Z,8.73
2023-02-12T10:58:04.156Z,9.57
2023-02-12T11:00:34.700Z,10.40
2023-02-12T11:03:13.292Z,8.20
2023-02-12T11:05:41.214Z,8.17
2023-02-12T11:08:08.000Z,7.97
2023-02-12T11:10:40.925Z,9.53
2023-02-12T11:13:22.499Z,7.57
2023-02-12T11:15:49.194Z,8.70
2023-02-12T11:18:22.409Z,8.37
2023-02-12T11:20:57.643Z,8.40
2023-02-12T11:23:35.341Z,8.37
2023-02-12T11:26:18.064Z,7.50
2023-02-12T11:29:00.902Z,7.23
2023-02-12T11:31:31.392Z,7.37
2023-02-12T11:34:04.254Z,7.60
2023-02-12T11:36:30.868Z,8.67
2023-02-12T11:38:57.780Z,7.80
2023-02-12T11:41:30.689Z,8.13
2023-02-12T11:43:57.314Z,7.83
2023-02-12T11:46:25.323Z,8.03
2023-02-12T11:48:52.413Z,7.87
2023-02-12T11:51:29.233Z,6.27
2023-02-12T11:54:00.150Z,8.13
2023-02-12T11:56:43.904Z,8.00
2023-02-12T11:59:34.005Z,9.67
2023-02-12T12:02:16.380Z,7.33
2023-02-12T12:04:43.060Z,7.23
2023-02-12T12:07:19.423Z,7.90
2023-02-12T12:09:47.587Z,8.87
2023-02-12T12:12:24.360Z,8.50
2023-02-12T12:15:22.753Z,8.77
2023-02-12T12:18:40.146Z,10.73
2023-02-12T12:21:13.914Z,10.97
2023-02-12T12:23:44.550Z,9.60
2023-02-12T12:26:15.129Z,9.20
2023-02-12T12:28:47.943Z,9.10
2023-02-12T12:31:25.028Z,8.40
2023-02-12T12:34:12.278Z,8.70
2023-02-12T12:37:18.868Z,8.60
2023-02-12T12:40:02.581Z,8.77
2023-02-12T12:43:09.342Z,8.53
2023-02-12T12:45:54.421Z,8.27
2023-02-12T12:48:45.374Z,7.93
2023-02-12T12:51:33.049Z,8.47
2023-02-12T12:54:09.937Z,9.53
2023-02-12T12:56:46.477Z,9.97
2023-02-12T12:59:38.022Z,8.90
2023-02-12T13:02:42.106Z,8.00
2023-02-12T13:05:08.743Z,8.83
2023-02-12T13:07:41.323Z,8.23
2023-02-12T13:10:11.060Z,8.27
2023-02-12T13:12:40.760Z,8.40
2023-02-12T13:15:30.427Z,9.97
2023-02-12T13:18:27.928Z,9.73
2023-02-12T13:21:14.888Z,9.87
2023-02-12T13:23:52.638Z,11.63
2023-02-12T13:26:30.382Z,13.27
2023-02-12T13:29:04.417Z,10.63
2023-02-12T13:31:34.093Z,10.20
2023-02-12T13:34:02.905Z,11.03
2023-02-12T13:36:29.522Z,11.80
2023-02-12T13:38:56.584Z,11.50
2023-02-12T13:41:23.187Z,10.57
2023-02-12T13:43:52.746Z,11.70
2023-02-12T13:46:25.492Z,10.07
2023-02-12T13:48:57.483Z,10.33
2023-02-12T13:51:51.739Z,9.60
2023-02-12T13:54:37.384Z,10.07
2023-02-12T13:57:08.920Z,12.17
2023-02-12T13:59:35.536Z,11.10
2023-02-12T14:02:06.609Z,11.53
2023-02-12T14:04:43.522Z,12.23
2023-02-12T14:07:12.578Z,11.03
2023-02-12T14:09:43.758Z,10.63
2023-02-12T14:12:11.723Z,10.63
2023-02-12T14:14:43.593Z,9.40
2023-02-12T14:17:28.498Z,10.43
2023-02-12T14:20:03.856Z,10.43
2023-02-12T14:22:30.458Z,8.57
2023-02-12T14:25:01.680Z,9.80
2023-02-12T14:27:56.069Z,11.77
2023-02-12T14:30:31.680Z,8.97
2023-02-12T14:33:07.299Z,9.83
2023-02-12T14:35:43.959Z,10.17
2023-02-12T14:38:16.827Z,9.83
2023-02-12T14:40:46.742Z,9.73
2023-02-12T14:43:59.998Z,9.40
2023-02-12T14:46:26.595Z,10.20
2023-02-12T14:48:56.634Z,9.67
2023-02-12T14:51:32.959Z,9.80
2023-02-12T14:53:59.542Z,10.57
2023-02-12T14:56:26.147Z,12.47
2023-02-12T14:58:53.695Z,10.50
2023-02-12T15:01:26.943Z,9.07
2023-02-12T15:03:54.802Z,9.97
2023-02-12T15:06:22.563Z,11.57
2023-02-12T15:08:53.133Z,10.03
2023-02-12T15:11:50.286Z,10.73
2023-02-12T15:14:22.563Z,11.10
2023-02-12T15:17:18.624Z,10.33
2023-02-12T15:19:59.806Z,10.73
2023-02-12T15:22:30.853Z,11.23
2023-02-12T15:25:22.272Z,10.20
2023-02-12T15:27:49.196Z,10.67
2023-02-12T15:30:26.409Z,11.20
2023-02-12T15:32:55.452Z,10.00
2023-02-12T15:35:30.994Z,14.63
2023-02-12T15:38:00.052Z,11.97
2023-02-12T15:40:27.240Z,11.37
2023-02-12T15:42:59.004Z,10.90
2023-02-12T15:45:27.443Z,11.93
2023-02-12T15:48:01.447Z,10.90
2023-02-12T15:50:28.946Z,11.33
2023-02-12T15:52:56.615Z,11.10
2023-02-12T15:55:28.304Z,10.07
2023-02-12T15:58:00.495Z,9.13
2023-02-12T16:00:48.543Z,11.63
2023-02-12T16:03:32.276Z,9.73
2023-02-12T16:06:16.727Z,10.23
2023-02-12T16:08:48.721Z,9.53
2023-02-12T16:11:19.822Z,10.33
2023-02-12T16:14:13.944Z,10.40
2023-02-12T16:16:50.512Z,11.53
2023-02-12T16:19:29.777Z,11.20
2023-02-12T16:21:59.379Z,10.37
2023-02-12T16:24:47.805Z,11.33
2023-02-12T16:27:19.686Z,10.80
2023-02-12T16:29:56.473Z,10.87
2023-02-12T16:32:42.617Z,9.67
2023-02-12T16:35:12.218Z,11.40
2023-02-12T16:37:38.802Z,11.57
2023-02-12T16:40:15.381Z,10.80
2023-02-12T16:42:47.984Z,10.43
2023-02-12T16:45:26.671Z,10.67
2023-02-12T16:48:08.764Z,12.97
2023-02-12T16:50:36.783Z,11.37
2023-02-12T16:53:05.249Z,10.97
2023-02-12T16:55:31.929Z,11.27
2023-02-12T16:57:59.609Z,11.37
2023-02-12T17:00:26.247Z,12.30
2023-02-12T17:02:56.167Z,11.07
2023-02-12T17:05:23.264Z,11.90
2023-02-12T17:07:50.216Z,11.50
2023-02-12T17:10:17.544Z,11.27
2023-02-12T17:12:48.495Z,10.43
2023-02-12T17:15:30.356Z,9.23
2023-02-12T17:17:56.979Z,8.67
2023-02-12T17:20:23.589Z,10.10
2023-02-12T17:22:51.559Z,9.90
2023-02-12T17:25:18.268Z,10.47
2023-02-12T17:27:45.274Z,8.77
2023-02-12T17:30:16.786Z,6.60
2023-02-12T17:32:43.508Z,7.03
2023-02-12T17:35:10.163Z,5.50
2023-02-12T17:37:36.773Z,5.60
2023-02-12T17:40:03.700Z,5.30
2023-02-12T17:42:30.319Z,5.77
2023-02-12T17:44:57.054Z,4.97
2023-02-12T17:47:23.734Z,5.07
2023-02-12T17:49:50.391Z,4.77
2023-02-12T17:52:16.999Z,4.77
2023-02-12T17:54:46.679Z,5.50
2023-02-12T17:57:14.787Z,4.57
2023-02-12T17:59:41.806Z,4.30
2023-02-12T18:02:10.195Z,4.37
2023-02-12T18:04:36.904Z,4.40
2023-02-12T18:07:04.245Z,4.60
2023-02-12T18:09:31.088Z,4.50
2023-02-12T18:11:57.789Z,3.93
2023-02-12T18:14:24.400Z,4.40
2023-02-12T18:16:51.051Z,4.30
2023-02-12T18:19:17.751Z,5.60
2023-02-12T18:21:44.421Z,5.87
2023-02-12T18:24:11.014Z,5.20
2023-02-12T18:26:37.637Z,5.50
2023-02-12T18:29:04.220Z,6.80
2023-02-12T18:31:31.066Z,6.07
2023-02-12T18:33:58.861Z,5.20
2023-02-12T18:36:25.454Z,5.63
2023-02-12T18:38:52.134Z,7.77
2023-02-12T18:41:24.019Z,9.87
2023-02-12T18:43:50.643Z,8.93
2023-02-12T18:46:22.136Z,8.80
2023-02-12T18:48:48.878Z,8.13
2023-02-12T18:51:22.145Z,8.20
2023-02-12T18:54:01.505Z,7.77
2023-02-12T18:56:29.202Z,6.67
2023-02-12T18:58:56.854Z,6.90
2023-02-12T19:01:23.707Z,6.47
2023-02-12T19:03:53.159Z,5.20
2023-02-12T19:06:19.798Z,5.57
2023-02-12T19:08:46.406Z,6.17
2023-02-12T19:11:14.909Z,5.90
2023-02-12T19:13:42.359Z,6.40
2023-02-12T19:16:11.053Z,5.47
2023-02-12T19:18:37.674Z,5.43
2023-02-12T19:21:08.535Z,5.37
2023-02-12T19:23:35.214Z,5.67
2023-02-12T19:26:05.845Z,6.60
2023-02-12T19:28:32.736Z,8.27
2023-02-12T19:31:01.059Z,8.43
2023-02-12T19:33:27.872Z,8.27
2023-02-12T19:35:54.492Z,8.90
2023-02-12T19:38:21.096Z,8.67
2023-02-12T19:40:47.768Z,9.07
2023-02-12T19:43:14.377Z,8.20
2023-02-12T19:45:41.007Z,8.27
2023-02-12T19:48:07.643Z,7.70
2023-02-12T19:50:35.389Z,7.53
2023-02-12T19:53:02.143Z,6.50
2023-02-12T19:55:28.743Z,6.70
2023-02-12T19:57:55.353Z,6.47
2023-02-12T20:00:22.136Z,6.40
2023-02-12T20:02:48.770Z,7.37
2023-02-12T20:05:15.518Z,5.67
2023-02-12T20:07:42.120Z,6.83
2023-02-12T20:10:08.949Z,6.17
2023-02-12T20:12:40.008Z,6.43
2023-02-12T20:15:06.844Z,7.67
2023-02-12T20:17:33.455Z,6.60
2023-02-12T20:20:00.056Z,6.87
2023-02-12T20:22:26.729Z,6.90
2023-02-12T20:24:53.358Z,7.07
2023-02-12T20:27:19.964Z,5.73
2023-02-12T20:29:46.591Z,6.87
2023-02-12T20:32:13.246Z,6.10
2023-02-12T20:34:50.451Z,6.50
2023-02-12T20:37:18.248Z,6.10
2023-02-12T20:39:44.970Z,5.07
2023-02-12T20:42:12.251Z,6.30
2023-02-12T20:44:38.851Z,5.43
2023-02-12T20:47:05.454Z,5.93
2023-02-12T20:49:32.062Z,5.63
2023-02-12T20:51:58.739Z,6.97
2023-02-12T20:54:25.799Z,6.03
2023-02-12T20:56:52.406Z,5.23
2023-02-12T20:59:20.110Z,6.03
2023-02-12T21:01:47.327Z,6.60
2023-02-12T21:04:15.363Z,7.03
2023-02-12T21:06:42.001Z,7.80
2023-02-12T21:09:09.672Z,7.00
2023-02-12T21:11:36.328Z,8.27
2023-02-12T21:14:20.889Z,7.37
2023-02-12T21:16:48.458Z,7.23
2023-02-12T21:19:15.078Z,6.33
2023-02-12T21:21:44.337Z,6.00
2023-02-12T21:24:12.867Z,7.97
2023-02-12T21:26:39.566Z,6.80
2023-02-12T21:29:06.252Z,6.63
2023-02-12T21:31:37.974Z,5.97
2023-02-12T21:34:05.782Z,6.40
2023-02-12T21:36:39.503Z,5.57
2023-02-12T21:39:07.165Z,5.27
2023-02-12T21:41:35.595Z,5.30
2023-02-12T21:44:08.812Z,6.80
2023-02-12T21:46:35.654Z,5.27
2023-02-12T21:49:02.355Z,4.77
2023-02-12T21:51:39.654Z,5.17
2023-02-12T21:54:11.183Z,4.10
2023-02-12T21:56:41.356Z,5.73
2023-02-12T21:59:08.657Z,4.77
2023-02-12T22:01:37.213Z,4.27
2023-02-12T22:04:05.052Z,4.00
2023-02-12T22:06:31.652Z,3.90
2023-02-12T22:09:02.164Z,4.70
2023-02-12T22:11:28.948Z,4.40
2023-02-12T22:13:55.563Z,6.43
2023-02-12T22:16:23.915Z,4.90
2023-02-12T22:18:52.664Z,5.43
2023-02-12T22:21:19.382Z,4.77
2023-02-12T22:23:46.246Z,5.63
2023-02-12T22:26:17.328Z,5.20
2023-02-12T22:28:45.185Z,5.17
2023-02-12T22:31:14.316Z,6.27
2023-02-12T22:33:40.956Z,5.87
2023-02-12T22:36:09.165Z,4.10
2023-02-12T22:38:36.578Z,5.00
2023-02-12T22:41:03.204Z,4.90
2023-02-12T22:43:30.539Z,5.37
2023-02-12T22:45:57.226Z,5.47
2023-02-12T22:48:24.355Z,6.00
2023-02-12T22:50:51.136Z,4.57
2023-02-12T22:53:17.768Z,4.00
2023-02-12T22:55:44.348Z,3.90
2023-02-12T22:58:11.826Z,3.90
2023-02-12T23:00:39.749Z,4.33
2023-02-12T23:03:06.350Z,4.83
2023-02-12T23:05:36.396Z,5.03
2023-02-12T23:08:04.004Z,5.47
2023-02-12T23:10:30.611Z,6.13
2023-02-12T23:12:57.223Z,5.50
2023-02-12T23:15:23.818Z,6.07
2023-02-12T23:17:51.263Z,5.70
2023-02-12T23:20:18.003Z,5.47
2023-02-12T23:22:44.630Z,5.97
2023-02-12T23:25:11.228Z,5.13
2023-02-12T23:27:37.971Z,6.00
2023-02-12T23:30:05.023Z,5.27
2023-02-12T23:32:31.768Z,4.93
2023-02-12T23:34:58.408Z,5.03
2023-02-12T23:37:25.061Z,4.53
2023-02-12T23:39:51.642Z,4.70
2023-02-12T23:42:19.006Z,4.93
2023-02-12T23:44:45.599Z,5.13
2023-02-12T23:47:12.195Z,4.10
2023-02-12T23:49:38.799Z,4.40
2023-02-12T23:52:05.424Z,3.80
2023-02-12T23:54:32.046Z,3.83
2023-02-12T23:56:58.698Z,4.40
2023-02-12T23:59:25.779Z,4.20
